createdAt,value
2022-11-09T00:01:32.352Z,11.38
2022-11-09T00:04:01.093Z,11.41
2022-11-09T00:06:28.799Z,11.39
2022-11-09T00:08:55.767Z,11.38
2022-11-09T00:11:22.990Z,11.39
2022-11-09T00:13:50.117Z,11.38
2022-11-09T00:16:19.283Z,11.35
2022-11-09T00:18:47.669Z,11.36
2022-11-09T00:21:19.909Z,11.38
2022-11-09T00:23:55.781Z,11.37
2022-11-09T00:26:22.596Z,11.34
2022-11-09T00:28:49.927Z,11.35
2022-11-09T00:31:21.894Z,11.38
2022-11-09T00:33:53.433Z,11.36
2022-11-09T00:36:20.736Z,11.32
2022-11-09T00:38:54.368Z,11.33
2022-11-09T00:41:21.675Z,11.32
2022-11-09T00:43:48.763Z,11.32
2022-11-09T00:46:15.801Z,11.33
2022-11-09T00:48:46.786Z,11.34
2022-11-09T00:51:16.487Z,11.33
2022-11-09T00:53:48.879Z,11.34
2022-11-09T00:56:18.784Z,11.30
2022-11-09T00:58:55.661Z,11.32
2022-11-09T01:01:26.492Z,11.30
2022-11-09T01:03:54.896Z,11.21
2022-11-09T01:06:34.919Z,11.26
2022-11-09T01:09:02.859Z,11.25
2022-11-09T01:11:29.784Z,11.28
2022-11-09T01:13:59.447Z,11.27
2022-11-09T01:16:26.640Z,11.27
2022-11-09T01:18:57.783Z,11.27
2022-11-09T01:21:27.654Z,11.25
2022-11-09T01:24:09.262Z,11.17
2022-11-09T01:26:36.852Z,11.16
2022-11-09T01:29:03.598Z,11.21
2022-11-09T01:31:38.678Z,11.20
2022-11-09T01:34:05.422Z,11.22
2022-11-09T01:36:33.493Z,11.23
2022-11-09T01:39:01.031Z,11.22
2022-11-09T01:41:34.284Z,11.20
2022-11-09T01:44:08.256Z,11.21
2022-11-09T01:46:44.635Z,11.16
2022-11-09T01:49:24.928Z,11.12
2022-11-09T01:51:59.739Z,11.12
2022-11-09T01:54:29.919Z,11.09
2022-11-09T01:57:08.260Z,11.08
2022-11-09T01:59:47.555Z,11.02
2022-11-09T02:02:17.661Z,11.03
2022-11-09T02:04:49.744Z,11.02
2022-11-09T02:07:17.576Z,11.03
2022-11-09T02:09:56.340Z,11.04
2022-11-09T02:12:26.094Z,11.04
2022-11-09T02:14:56.806Z,11.02
2022-11-09T02:17:23.538Z,10.93
2022-11-09T02:19:50.587Z,10.95
2022-11-09T02:22:21.014Z,11.01
2022-11-09T02:24:50.862Z,10.97
2022-11-09T02:27:23.594Z,10.96
2022-11-09T02:29:52.679Z,10.97
2022-11-09T02:32:21.616Z,10.97
2022-11-09T02:34:48.855Z,10.97
2022-11-09T02:37:42.194Z,10.91
2022-11-09T02:40:14.997Z,10.92
2022-11-09T02:42:45.505Z,10.92
2022-11-09T02:45:29.801Z,10.95
2022-11-09T02:48:02.607Z,10.88
2022-11-09T02:50:29.633Z,10.87
2022-11-09T02:52:56.418Z,10.85
2022-11-09T02:55:23.858Z,10.85
2022-11-09T02:57:51.222Z,10.84
2022-11-09T03:00:20.688Z,10.78
2022-11-09T03:02:47.468Z,10.78
2022-11-09T03:05:15.439Z,10.77
2022-11-09T03:07:43.531Z,10.77
2022-11-09T03:10:11.253Z,10.71
2022-11-09T03:12:59.539Z,10.65
2022-11-09T03:15:26.253Z,10.65
2022-11-09T03:17:55.518Z,10.64
2022-11-09T03:20:22.506Z,10.58
2022-11-09T03:22:58.511Z,10.57
2022-11-09T03:25:30.949Z,10.58
2022-11-09T03:28:05.858Z,10.59
2022-11-09T03:30:33.249Z,10.50
2022-11-09T03:34:07.377Z,10.46
2022-11-09T03:36:38.375Z,10.50
2022-11-09T03:39:12.787Z,10.47
2022-11-09T03:41:40.162Z,10.52
2022-11-09T03:44:14.554Z,10.58
2022-11-09T03:50:59.687Z,10.60
2022-11-09T03:53:28.340Z,10.57
2022-11-09T03:59:58.350Z,10.63
2022-11-09T04:02:58.863Z,10.62
2022-11-09T04:05:36.165Z,10.66
2022-11-09T04:08:11.791Z,10.68
2022-11-09T04:10:41.543Z,10.75
2022-11-09T04:13:26.112Z,10.76
2022-11-09T04:15:55.050Z,10.78
2022-11-09T04:28:34.595Z,10.79
2022-11-09T04:31:02.133Z,10.89
2022-11-09T04:33:29.108Z,10.92
2022-11-09T04:35:55.801Z,10.96
2022-11-09T04:38:22.491Z,11.05
2022-11-09T04:40:49.239Z,11.06
2022-11-09T04:43:16.417Z,11.11
2022-11-09T04:45:43.154Z,11.13
2022-11-09T04:48:13.332Z,11.15
2022-11-09T04:50:40.029Z,11.15
2022-11-09T04:53:11.652Z,11.18
2022-11-09T05:13:51.768Z,10.98
2022-11-09T05:16:19.721Z,11.04
2022-11-09T05:18:46.999Z,11.04
2022-11-09T05:21:13.686Z,11.06
2022-11-09T05:23:58.986Z,11.02
2022-11-09T05:26:34.328Z,10.98
2022-11-09T05:29:03.415Z,11.01
2022-11-09T05:31:30.703Z,11.01
2022-11-09T05:33:58.368Z,10.98
2022-11-09T05:36:25.516Z,11.01
2022-11-09T05:38:52.404Z,11.01
2022-11-09T05:41:19.101Z,11.02
2022-11-09T05:43:46.324Z,11.02
2022-11-09T05:46:14.682Z,11.02
2022-11-09T05:48:44.859Z,11.02
2022-11-09T05:51:13.887Z,11.01
2022-11-09T05:53:46.123Z,11.05
2022-11-09T05:56:14.403Z,11.04
2022-11-09T05:58:42.191Z,11.02
2022-11-09T06:01:11.598Z,11.05
2022-11-09T06:03:38.379Z,11.01
2022-11-09T06:06:08.841Z,11.03
2022-11-09T06:08:35.915Z,10.95
2022-11-09T06:11:06.614Z,10.90
2022-11-09T06:13:33.305Z,10.90
2022-11-09T06:16:00.705Z,10.88
2022-11-09T06:18:28.371Z,10.87
2022-11-09T06:21:05.685Z,10.90
2022-11-09T06:23:32.484Z,10.88
2022-11-09T06:25:59.873Z,10.91
2022-11-09T06:28:26.519Z,10.92
2022-11-09T06:30:53.439Z,10.88
2022-11-09T06:33:20.353Z,10.90
2022-11-09T06:35:49.771Z,10.90
2022-11-09T06:38:18.732Z,10.90
2022-11-09T06:40:45.302Z,10.88
2022-11-09T06:43:11.927Z,10.88
2022-11-09T06:45:38.741Z,10.88
2022-11-09T06:48:05.704Z,10.91
2022-11-09T06:50:33.295Z,10.93
2022-11-09T06:53:00.839Z,10.93
2022-11-09T06:55:27.886Z,10.96
2022-11-09T06:57:54.814Z,10.98
2022-11-09T07:00:21.606Z,10.98
2022-11-09T07:02:48.206Z,10.98
2022-11-09T07:05:14.848Z,11.00
2022-11-09T07:07:44.691Z,11.04
2022-11-09T07:10:12.183Z,11.02
2022-11-09T07:12:38.915Z,11.04
2022-11-09T07:15:06.084Z,11.07
2022-11-09T07:17:33.287Z,11.10
2022-11-09T07:20:01.254Z,11.13
2022-11-09T07:22:28.843Z,11.12
2022-11-09T07:24:55.991Z,11.13
2022-11-09T07:27:27.559Z,11.14
2022-11-09T07:29:54.923Z,11.12
2022-11-09T07:32:40.574Z,11.09
2022-11-09T07:35:11.788Z,11.06
2022-11-09T07:37:38.521Z,11.07
2022-11-09T07:40:08.204Z,11.07
2022-11-09T07:42:34.801Z,11.06
2022-11-09T07:45:01.497Z,11.06
2022-11-09T07:47:28.071Z,11.06
2022-11-09T07:49:54.717Z,11.06
2022-11-09T07:52:21.286Z,11.00
2022-11-09T07:54:51.970Z,11.04
2022-11-09T07:57:24.502Z,11.00
2022-11-09T07:59:53.605Z,11.04
2022-11-09T08:09:56.484Z,10.95
2022-11-09T08:16:04.337Z,10.95
2022-11-09T08:18:34.883Z,11.01
2022-11-09T08:24:09.925Z,10.96
2022-11-09T08:26:36.568Z,10.98
2022-11-09T08:29:03.180Z,10.99
2022-11-09T08:31:29.919Z,10.97
2022-11-09T08:33:56.565Z,10.98
2022-11-09T08:36:26.103Z,10.91
2022-11-09T08:38:52.922Z,10.91
2022-11-09T08:41:19.511Z,10.93
2022-11-09T08:43:46.083Z,10.92
2022-11-09T08:46:12.732Z,10.92
2022-11-09T08:48:40.792Z,10.93
2022-11-09T08:54:43.947Z,11.01
2022-11-09T09:00:11.911Z,11.00
2022-11-09T09:05:53.419Z,11.06
2022-11-09T09:12:02.103Z,11.14
2022-11-09T09:14:41.112Z,11.16
2022-11-09T09:17:35.585Z,11.14
2022-11-09T09:26:20.618Z,11.20
2022-11-09T09:28:47.251Z,11.26
2022-11-09T09:31:18.200Z,11.28
2022-11-09T09:33:47.557Z,11.27
2022-11-09T09:36:16.579Z,11.32
2022-11-09T09:38:43.180Z,11.38
2022-11-09T09:41:13.378Z,11.41
2022-11-09T09:43:44.208Z,11.40
2022-11-09T09:46:31.401Z,11.43
2022-11-09T09:49:00.255Z,11.47
2022-11-09T09:51:43.092Z,11.56
2022-11-09T09:54:15.600Z,11.84
2022-11-09T09:56:43.510Z,12.05
2022-11-09T09:59:29.030Z,11.92
2022-11-09T10:01:57.578Z,11.84
2022-11-09T10:04:36.718Z,11.81
2022-11-09T10:07:15.658Z,11.78
2022-11-09T10:10:01.183Z,11.76
2022-11-09T10:12:46.753Z,11.81
2022-11-09T10:15:21.431Z,11.83
2022-11-09T10:17:54.146Z,11.77
2022-11-09T10:20:20.734Z,11.74
2022-11-09T10:22:47.415Z,11.70
2022-11-09T10:25:27.597Z,11.78
2022-11-09T10:28:04.455Z,11.74
2022-11-09T10:30:31.589Z,11.76
2022-11-09T10:33:00.170Z,11.77
2022-11-09T10:35:31.102Z,11.79
2022-11-09T10:37:57.776Z,11.79
2022-11-09T10:40:29.004Z,11.74
2022-11-09T10:43:14.952Z,11.73
2022-11-09T10:46:04.852Z,11.74
2022-11-09T10:48:50.294Z,11.79
2022-11-09T10:51:39.179Z,11.89
2022-11-09T10:54:26.672Z,11.92
2022-11-09T10:57:19.461Z,11.99
2022-11-09T11:00:05.605Z,12.14
2022-11-09T11:02:52.084Z,12.18
2022-11-09T11:05:37.547Z,12.31
2022-11-09T11:08:27.433Z,12.43
2022-11-09T11:11:32.793Z,12.51
2022-11-09T11:14:29.723Z,12.61
2022-11-09T11:17:42.784Z,12.67
2022-11-09T11:20:29.961Z,12.80
2022-11-09T11:23:15.360Z,13.00
2022-11-09T11:26:06.413Z,13.04
2022-11-09T11:29:02.239Z,12.96
2022-11-09T11:31:47.797Z,12.94
2022-11-09T11:34:58.656Z,12.88
2022-11-09T11:37:50.300Z,12.89
2022-11-09T11:40:42.502Z,12.97
2022-11-09T11:43:30.539Z,13.01
2022-11-09T11:46:24.732Z,12.99
2022-11-09T11:49:27.485Z,12.99
2022-11-09T11:52:18.859Z,13.00
2022-11-09T11:55:26.454Z,13.01
2022-11-09T11:58:20.646Z,13.05
2022-11-09T12:01:11.991Z,13.01
2022-11-09T12:04:00.412Z,13.06
2022-11-09T12:06:51.375Z,13.04
2022-11-09T12:09:43.689Z,13.03
2022-11-09T12:12:37.723Z,13.09
2022-11-09T12:15:25.855Z,13.19
2022-11-09T12:18:19.845Z,13.29
2022-11-09T12:21:13.669Z,13.37
2022-11-09T12:24:17.400Z,13.42
2022-11-09T12:27:37.086Z,13.61
2022-11-09T12:30:24.117Z,14.01
2022-11-09T12:33:13.339Z,14.36
2022-11-09T12:35:59.658Z,14.48
2022-11-09T12:38:52.881Z,14.33
2022-11-09T12:41:38.167Z,14.18
2022-11-09T12:44:25.197Z,14.09
2022-11-09T12:47:15.324Z,14.06
2022-11-09T12:50:00.359Z,13.97
2022-11-09T12:52:45.653Z,13.94
2022-11-09T12:55:49.443Z,13.88
2022-11-09T12:58:35.470Z,13.78
2022-11-09T13:01:27.082Z,13.72
2022-11-09T13:04:16.333Z,13.71
2022-11-09T13:07:04.446Z,13.65
2022-11-09T13:09:53.390Z,13.69
2022-11-09T13:12:39.556Z,13.82
2022-11-09T13:15:28.709Z,13.96
2022-11-09T13:18:31.284Z,14.01
2022-11-09T13:21:21.532Z,14.06
2022-11-09T13:24:42.424Z,13.97
2022-11-09T13:27:30.408Z,13.93
2022-11-09T13:30:36.478Z,13.82
2022-11-09T13:33:22.873Z,13.83
2022-11-09T13:36:08.499Z,13.92
2022-11-09T13:39:12.219Z,13.95
2022-11-09T13:41:57.245Z,13.97
2022-11-09T13:44:45.814Z,13.93
2022-11-09T13:47:34.223Z,13.87
2022-11-09T13:50:20.144Z,13.84
2022-11-09T13:53:05.735Z,13.90
2022-11-09T13:55:50.908Z,13.94
2022-11-09T13:58:39.016Z,13.95
2022-11-09T14:01:48.092Z,13.94
2022-11-09T14:04:37.947Z,13.96
2022-11-09T14:07:27.698Z,13.99
2022-11-09T14:10:12.819Z,14.06
2022-11-09T14:13:03.741Z,14.00
2022-11-09T14:15:53.369Z,13.94
2022-11-09T14:18:51.067Z,13.90
2022-11-09T14:21:42.900Z,13.77
2022-11-09T14:24:29.694Z,13.73
2022-11-09T14:27:22.093Z,13.72
2022-11-09T14:30:33.767Z,13.70
2022-11-09T14:33:22.606Z,13.57
2022-11-09T14:36:10.732Z,13.48
2022-11-09T14:38:57.596Z,13.39
2022-11-09T14:41:43.700Z,13.33
2022-11-09T14:44:29.999Z,13.28
2022-11-09T14:47:19.028Z,13.20
2022-11-09T14:50:04.412Z,13.12
2022-11-09T14:52:49.981Z,13.07
2022-11-09T14:55:35.811Z,13.04
2022-11-09T14:58:21.488Z,13.02
2022-11-09T15:01:16.806Z,13.03
2022-11-09T15:04:04.776Z,12.95
2022-11-09T15:06:51.259Z,12.94
2022-11-09T15:09:42.187Z,12.88
2022-11-09T15:12:29.505Z,12.85
2022-11-09T15:15:22.142Z,12.78
2022-11-09T15:18:15.554Z,12.74
2022-11-09T15:21:10.533Z,12.71
2022-11-09T15:24:08.165Z,12.67
2022-11-09T15:26:54.096Z,12.61
2022-11-09T15:29:42.945Z,12.59
2022-11-09T15:32:28.015Z,12.55
2022-11-09T15:35:14.391Z,12.51
2022-11-09T15:37:59.750Z,12.46
2022-11-09T15:40:44.640Z,12.42
2022-11-09T15:43:29.763Z,12.39
2022-11-09T15:46:15.974Z,12.34
2022-11-09T15:49:15.365Z,12.33
2022-11-09T15:52:00.702Z,12.29
2022-11-09T15:54:47.029Z,12.29
2022-11-09T15:57:32.638Z,12.26
2022-11-09T16:00:20.918Z,12.26
2022-11-09T16:03:06.521Z,12.24
2022-11-09T16:05:51.592Z,12.22
2022-11-09T16:08:36.628Z,12.18
2022-11-09T16:11:22.084Z,12.17
2022-11-09T16:14:07.126Z,12.15
2022-11-09T16:16:52.166Z,12.13
2022-11-09T16:19:39.704Z,12.12
2022-11-09T16:22:29.028Z,12.13
2022-11-09T16:25:14.823Z,12.10
2022-11-09T16:27:59.793Z,12.11
2022-11-09T16:30:46.887Z,12.09
2022-11-09T16:33:32.449Z,12.10
2022-11-09T16:36:19.796Z,12.13
2022-11-09T16:39:06.434Z,12.02
2022-11-09T16:41:51.841Z,11.91
2022-11-09T16:44:37.496Z,11.84
2022-11-09T16:47:22.824Z,11.81
2022-11-09T16:50:07.962Z,11.76
2022-11-09T16:52:52.958Z,11.77
2022-11-09T16:55:38.215Z,11.74
2022-11-09T16:58:23.785Z,11.68
2022-11-09T17:01:12.426Z,11.67
2022-11-09T17:03:58.786Z,11.67
2022-11-09T17:06:44.214Z,11.73
2022-11-09T17:09:33.151Z,11.79
2022-11-09T17:12:18.205Z,11.86
2022-11-09T17:15:03.609Z,11.89
2022-11-09T17:17:48.972Z,11.92
2022-11-09T17:20:35.356Z,11.85
2022-11-09T17:23:36.057Z,11.63
2022-11-09T17:26:29.063Z,11.63
2022-11-09T17:29:17.590Z,11.64
2022-11-09T17:32:19.788Z,11.69
2022-11-09T17:35:08.493Z,11.74
2022-11-09T17:37:53.858Z,11.76
2022-11-09T17:40:42.175Z,11.78
2022-11-09T17:43:36.564Z,11.81
2022-11-09T17:46:27.098Z,11.81
2022-11-09T17:51:02.118Z,11.82
2022-11-09T17:52:54.611Z,11.87
2022-11-09T17:55:45.921Z,11.85
2022-11-09T17:58:31.553Z,11.87
2022-11-09T18:01:19.952Z,11.83
2022-11-09T18:04:06.742Z,11.82
2022-11-09T18:06:52.177Z,11.81
2022-11-09T18:09:42.223Z,11.80
2022-11-09T18:12:27.759Z,11.81
2022-11-09T18:15:13.119Z,11.80
2022-11-09T18:17:59.456Z,11.79
2022-11-09T18:20:44.924Z,11.78
2022-11-09T18:23:30.304Z,11.76
2022-11-09T18:26:15.422Z,11.76
2022-11-09T18:29:02.030Z,11.73
2022-11-09T18:31:47.591Z,11.74
2022-11-09T18:34:32.950Z,11.74
2022-11-09T18:37:21.375Z,11.72
2022-11-09T18:40:08.795Z,11.70
2022-11-09T18:42:54.330Z,11.61
2022-11-09T18:46:27.369Z,11.57
2022-11-09T18:49:23.015Z,11.56
2022-11-09T18:52:08.440Z,11.53
2022-11-09T18:54:53.685Z,11.59
2022-11-09T18:57:41.784Z,11.64
2022-11-09T19:00:27.355Z,11.66
2022-11-09T19:03:14.122Z,11.65
2022-11-09T19:06:21.376Z,11.66
2022-11-09T19:09:34.494Z,11.69
2022-11-09T19:12:19.647Z,11.72
2022-11-09T19:15:07.907Z,11.74
2022-11-09T19:17:53.786Z,11.75
2022-11-09T19:20:39.088Z,11.72
2022-11-09T19:23:33.841Z,11.70
2022-11-09T19:26:27.367Z,11.68
2022-11-09T19:29:13.281Z,11.66
2022-11-09T19:31:58.732Z,11.68
2022-11-09T19:34:46.285Z,11.68
2022-11-09T19:37:31.833Z,11.68
2022-11-09T19:40:17.190Z,11.66
2022-11-09T19:43:09.231Z,11.64
2022-11-09T19:46:00.600Z,11.63
2022-11-09T19:48:46.759Z,11.60
2022-11-09T19:51:32.185Z,11.59
2022-11-09T19:54:18.753Z,11.59
2022-11-09T19:57:04.432Z,11.57
2022-11-09T19:59:50.294Z,11.59
2022-11-09T20:02:59.825Z,11.58
2022-11-09T20:17:06.068Z,11.46
2022-11-09T20:20:02.533Z,11.44
2022-11-09T21:40:48.356Z,11.08
2022-11-09T21:55:18.342Z,11.11
2022-11-09T23:10:28.857Z,11.02
2022-11-09T23:16:50.085Z,11.06
2022-11-09T23:19:51.238Z,11.06
2022-11-09T23:22:55.362Z,11.04
2022-11-09T23:26:19.869Z,11.06
2022-11-09T23:30:17.138Z,11.06
2022-11-09T23:33:03.031Z,11.06
2022-11-09T23:35:53.569Z,10.98
2022-11-09T23:38:42.293Z,10.92
2022-11-09T23:41:30.732Z,10.90
2022-11-09T23:44:16.268Z,10.91
2022-11-09T23:47:31.032Z,10.87
2022-11-09T23:50:41.835Z,10.86
2022-11-09T23:53:35.890Z,10.88
2022-11-09T23:56:25.676Z,10.81
2022-11-09T23:59:14.157Z,10.81
